sensor_id;sensor_type;location;lat;lon;timestamp;P1;durP1;ratioP1;P2;durP2;ratioP2
27632;SDS011;15046;50.930;13.334;2024-01-30T00:01:55;14.70;;;6.35;;
27632;SDS011;15046;50.930;13.334;2024-01-30T00:04:21;12.90;;;6.72;;
27632;SDS011;15046;50.930;13.334;2024-01-30T00:06:47;12.70;;;6.57;;
27632;SDS011;15046;50.930;13.334;2024-01-30T00:09:13;13.98;;;6.15;;
27632;SDS011;15046;50.930;13.334;2024-01-30T00:11:39;15.55;;;6.93;;
27632;SDS011;15046;50.930;13.334;2024-01-30T00:14:05;11.38;;;5.93;;
27632;SDS011;15046;50.930;13.334;2024-01-30T00:16:31;13.45;;;6.50;;
27632;SDS011;15046;50.930;13.334;2024-01-30T00:18:57;12.52;;;6.97;;
27632;SDS011;15046;50.930;13.334;2024-01-30T00:21:23;11.73;;;6.45;;
27632;SDS011;15046;50.930;13.334;2024-01-30T00:23:49;13.25;;;6.65;;
27632;SDS011;15046;50.930;13.334;2024-01-30T00:26:15;13.10;;;6.25;;
27632;SDS011;15046;50.930;13.334;2024-01-30T00:28:41;14.55;;;5.93;;
27632;SDS011;15046;50.930;13.334;2024-01-30T00:31:07;13.70;;;5.70;;
27632;SDS011;15046;50.930;13.334;2024-01-30T00:33:37;16.45;;;7.22;;
27632;SDS011;15046;50.930;13.334;2024-01-30T00:36:04;17.25;;;7.07;;
27632;SDS011;15046;50.930;13.334;2024-01-30T00:38:31;13.00;;;6.53;;
27632;SDS011;15046;50.930;13.334;2024-01-30T00:40:57;15.65;;;6.63;;
27632;SDS011;15046;50.930;13.334;2024-01-30T00:43:23;12.45;;;6.07;;
27632;SDS011;15046;50.930;13.334;2024-01-30T00:45:50;12.23;;;6.10;;
27632;SDS011;15046;50.930;13.334;2024-01-30T00:48:17;13.68;;;6.32;;
27632;SDS011;15046;50.930;13.334;2024-01-30T00:50:43;11.25;;;6.07;;
27632;SDS011;15046;50.930;13.334;2024-01-30T00:53:09;17.70;;;7.28;;
27632;SDS011;15046;50.930;13.334;2024-01-30T00:55:35;14.45;;;6.40;;
27632;SDS011;15046;50.930;13.334;2024-01-30T00:58:01;11.98;;;5.65;;
27632;SDS011;15046;50.930;13.334;2024-01-30T01:00:28;14.40;;;6.85;;
27632;SDS011;15046;50.930;13.334;2024-01-30T01:02:54;10.98;;;5.88;;
27632;SDS011;15046;50.930;13.334;2024-01-30T01:05:20;14.40;;;6.75;;
27632;SDS011;15046;50.930;13.334;2024-01-30T01:07:46;12.77;;;5.93;;
27632;SDS011;15046;50.930;13.334;2024-01-30T01:10:18;12.73;;;6.18;;
27632;SDS011;15046;50.930;13.334;2024-01-30T01:12:44;12.88;;;6.25;;
27632;SDS011;15046;50.930;13.334;2024-01-30T01:15:11;13.27;;;6.28;;
27632;SDS011;15046;50.930;13.334;2024-01-30T01:17:37;12.63;;;6.40;;
27632;SDS011;15046;50.930;13.334;2024-01-30T01:20:04;12.18;;;5.45;;
27632;SDS011;15046;50.930;13.334;2024-01-30T01:22:31;11.55;;;6.00;;
27632;SDS011;15046;50.930;13.334;2024-01-30T01:24:57;10.55;;;5.60;;
27632;SDS011;15046;50.930;13.334;2024-01-30T01:27:24;13.38;;;6.28;;
27632;SDS011;15046;50.930;13.334;2024-01-30T01:29:50;11.15;;;5.65;;
27632;SDS011;15046;50.930;13.334;2024-01-30T01:32:16;14.43;;;7.18;;
27632;SDS011;15046;50.930;13.334;2024-01-30T01:34:43;10.25;;;5.07;;
27632;SDS011;15046;50.930;13.334;2024-01-30T01:37:09;10.13;;;5.40;;
27632;SDS011;15046;50.930;13.334;2024-01-30T01:39:35;14.43;;;6.47;;
27632;SDS011;15046;50.930;13.334;2024-01-30T01:42:01;13.60;;;5.65;;
27632;SDS011;15046;50.930;13.334;2024-01-30T01:44:27;13.13;;;5.90;;
27632;SDS011;15046;50.930;13.334;2024-01-30T01:46:53;11.88;;;6.70;;
27632;SDS011;15046;50.930;13.334;2024-01-30T01:49:29;13.82;;;6.72;;
27632;SDS011;15046;50.930;13.334;2024-01-30T01:51:55;11.00;;;6.40;;
27632;SDS011;15046;50.930;13.334;2024-01-30T01:54:21;12.13;;;6.03;;
27632;SDS011;15046;50.930;13.334;2024-01-30T01:56:49;12.00;;;5.88;;
27632;SDS011;15046;50.930;13.334;2024-01-30T01:59:16;14.52;;;6.13;;
27632;SDS011;15046;50.930;13.334;2024-01-30T02:01:43;12.35;;;5.57;;
27632;SDS011;15046;50.930;13.334;2024-01-30T02:04:11;11.55;;;5.53;;
27632;SDS011;15046;50.930;13.334;2024-01-30T02:06:37;17.65;;;6.82;;
27632;SDS011;15046;50.930;13.334;2024-01-30T02:09:03;14.18;;;6.20;;
27632;SDS011;15046;50.930;13.334;2024-01-30T02:11:29;11.73;;;6.30;;
27632;SDS011;15046;50.930;13.334;2024-01-30T02:14:02;12.02;;;6.03;;
27632;SDS011;15046;50.930;13.334;2024-01-30T02:16:29;11.98;;;6.18;;
27632;SDS011;15046;50.930;13.334;2024-01-30T02:18:55;11.75;;;5.45;;
27632;SDS011;15046;50.930;13.334;2024-01-30T02:21:20;11.05;;;6.25;;
27632;SDS011;15046;50.930;13.334;2024-01-30T02:23:46;12.02;;;5.85;;
27632;SDS011;15046;50.930;13.334;2024-01-30T02:26:13;12.98;;;6.35;;
27632;SDS011;15046;50.930;13.334;2024-01-30T02:28:39;12.32;;;6.00;;
27632;SDS011;15046;50.930;13.334;2024-01-30T02:31:05;10.82;;;5.22;;
27632;SDS011;15046;50.930;13.334;2024-01-30T02:33:31;10.85;;;5.68;;
27632;SDS011;15046;50.930;13.334;2024-01-30T02:35:57;13.75;;;6.63;;
27632;SDS011;15046;50.930;13.334;2024-01-30T02:38:23;14.60;;;6.82;;
27632;SDS011;15046;50.930;13.334;2024-01-30T02:40:50;14.73;;;6.15;;
27632;SDS011;15046;50.930;13.334;2024-01-30T02:43:15;15.32;;;6.07;;
27632;SDS011;15046;50.930;13.334;2024-01-30T02:45:41;11.52;;;5.93;;
27632;SDS011;15046;50.930;13.334;2024-01-30T02:48:07;11.70;;;5.63;;
27632;SDS011;15046;50.930;13.334;2024-01-30T02:50:33;12.05;;;5.55;;
27632;SDS011;15046;50.930;13.334;2024-01-30T02:52:59;10.88;;;4.97;;
27632;SDS011;15046;50.930;13.334;2024-01-30T02:55:24;8.68;;;4.68;;
27632;SDS011;15046;50.930;13.334;2024-01-30T02:57:50;9.18;;;4.68;;
27632;SDS011;15046;50.930;13.334;2024-01-30T03:00:16;10.82;;;5.25;;
27632;SDS011;15046;50.930;13.334;2024-01-30T03:02:42;9.05;;;4.50;;
27632;SDS011;15046;50.930;13.334;2024-01-30T03:05:08;8.80;;;4.75;;
27632;SDS011;15046;50.930;13.334;2024-01-30T03:07:34;10.77;;;5.43;;
27632;SDS011;15046;50.930;13.334;2024-01-30T03:09:59;11.27;;;5.93;;
27632;SDS011;15046;50.930;13.334;2024-01-30T03:12:25;12.68;;;5.75;;
27632;SDS011;15046;50.930;13.334;2024-01-30T03:14:51;16.85;;;6.35;;
27632;SDS011;15046;50.930;13.334;2024-01-30T03:17:17;14.63;;;6.70;;
27632;SDS011;15046;50.930;13.334;2024-01-30T03:19:43;15.40;;;7.05;;
27632;SDS011;15046;50.930;13.334;2024-01-30T03:22:09;14.02;;;6.18;;
27632;SDS011;15046;50.930;13.334;2024-01-30T03:24:35;14.85;;;6.97;;
27632;SDS011;15046;50.930;13.334;2024-01-30T03:27:00;15.05;;;7.47;;
27632;SDS011;15046;50.930;13.334;2024-01-30T03:29:26;13.63;;;7.15;;
27632;SDS011;15046;50.930;13.334;2024-01-30T03:31:52;13.52;;;6.90;;
27632;SDS011;15046;50.930;13.334;2024-01-30T03:34:17;13.25;;;6.40;;
27632;SDS011;15046;50.930;13.334;2024-01-30T03:36:43;11.80;;;6.15;;
27632;SDS011;15046;50.930;13.334;2024-01-30T03:39:09;11.48;;;5.28;;
27632;SDS011;15046;50.930;13.334;2024-01-30T03:41:35;11.35;;;5.07;;
27632;SDS011;15046;50.930;13.334;2024-01-30T03:44:01;11.95;;;5.25;;
27632;SDS011;15046;50.930;13.334;2024-01-30T03:46:27;11.10;;;4.90;;
27632;SDS011;15046;50.930;13.334;2024-01-30T03:48:54;12.82;;;5.80;;
27632;SDS011;15046;50.930;13.334;2024-01-30T03:51:19;12.98;;;6.32;;
27632;SDS011;15046;50.930;13.334;2024-01-30T03:53:45;14.73;;;6.10;;
27632;SDS011;15046;50.930;13.334;2024-01-30T03:56:11;11.18;;;6.20;;
27632;SDS011;15046;50.930;13.334;2024-01-30T03:58:38;18.88;;;7.25;;
27632;SDS011;15046;50.930;13.334;2024-01-30T04:01:04;14.82;;;6.70;;
27632;SDS011;15046;50.930;13.334;2024-01-30T04:03:30;16.15;;;8.23;;
27632;SDS011;15046;50.930;13.334;2024-01-30T04:05:56;22.67;;;9.13;;
27632;SDS011;15046;50.930;13.334;2024-01-30T04:08:22;20.00;;;8.13;;
27632;SDS011;15046;50.930;13.334;2024-01-30T04:10:47;16.70;;;6.95;;
27632;SDS011;15046;50.930;13.334;2024-01-30T04:13:13;11.60;;;5.32;;
27632;SDS011;15046;50.930;13.334;2024-01-30T04:15:39;12.82;;;4.82;;
27632;SDS011;15046;50.930;13.334;2024-01-30T04:18:05;10.73;;;4.97;;
27632;SDS011;15046;50.930;13.334;2024-01-30T04:20:31;10.23;;;4.72;;
27632;SDS011;15046;50.930;13.334;2024-01-30T04:22:57;14.43;;;5.35;;
27632;SDS011;15046;50.930;13.334;2024-01-30T04:25:23;8.52;;;4.47;;
27632;SDS011;15046;50.930;13.334;2024-01-30T04:27:48;13.20;;;5.47;;
27632;SDS011;15046;50.930;13.334;2024-01-30T04:30:14;10.05;;;4.97;;
27632;SDS011;15046;50.930;13.334;2024-01-30T04:32:40;9.52;;;4.93;;
27632;SDS011;15046;50.930;13.334;2024-01-30T04:35:07;12.32;;;5.30;;
27632;SDS011;15046;50.930;13.334;2024-01-30T04:37:33;13.75;;;5.95;;
27632;SDS011;15046;50.930;13.334;2024-01-30T04:39:58;12.57;;;5.53;;
27632;SDS011;15046;50.930;13.334;2024-01-30T04:42:24;13.25;;;4.32;;
27632;SDS011;15046;50.930;13.334;2024-01-30T04:44:50;8.88;;;3.85;;
27632;SDS011;15046;50.930;13.334;2024-01-30T04:47:16;7.63;;;4.63;;
27632;SDS011;15046;50.930;13.334;2024-01-30T04:49:42;11.45;;;4.32;;
27632;SDS011;15046;50.930;13.334;2024-01-30T04:52:08;6.72;;;3.47;;
27632;SDS011;15046;50.930;13.334;2024-01-30T04:54:34;11.55;;;4.45;;
27632;SDS011;15046;50.930;13.334;2024-01-30T04:57:00;8.15;;;3.90;;
27632;SDS011;15046;50.930;13.334;2024-01-30T04:59:26;8.40;;;4.10;;
27632;SDS011;15046;50.930;13.334;2024-01-30T05:01:52;6.75;;;3.70;;
27632;SDS011;15046;50.930;13.334;2024-01-30T05:04:18;9.80;;;4.78;;
27632;SDS011;15046;50.930;13.334;2024-01-30T05:06:44;8.50;;;4.72;;
27632;SDS011;15046;50.930;13.334;2024-01-30T05:09:10;10.55;;;4.80;;
27632;SDS011;15046;50.930;13.334;2024-01-30T05:11:39;11.70;;;5.70;;
27632;SDS011;15046;50.930;13.334;2024-01-30T05:14:06;13.88;;;5.82;;
27632;SDS011;15046;50.930;13.334;2024-01-30T05:16:33;12.20;;;5.90;;
27632;SDS011;15046;50.930;13.334;2024-01-30T05:18:59;12.65;;;6.20;;
27632;SDS011;15046;50.930;13.334;2024-01-30T05:21:25;11.55;;;6.55;;
27632;SDS011;15046;50.930;13.334;2024-01-30T05:23:51;11.48;;;5.90;;
27632;SDS011;15046;50.930;13.334;2024-01-30T05:26:17;15.68;;;7.50;;
27632;SDS011;15046;50.930;13.334;2024-01-30T05:28:44;13.00;;;6.43;;
27632;SDS011;15046;50.930;13.334;2024-01-30T05:31:10;13.98;;;6.78;;
27632;SDS011;15046;50.930;13.334;2024-01-30T05:33:36;13.98;;;6.70;;
27632;SDS011;15046;50.930;13.334;2024-01-30T05:36:02;12.15;;;6.18;;
27632;SDS011;15046;50.930;13.334;2024-01-30T05:38:28;14.60;;;6.95;;
27632;SDS011;15046;50.930;13.334;2024-01-30T05:40:54;14.60;;;7.35;;
27632;SDS011;15046;50.930;13.334;2024-01-30T05:43:20;13.65;;;7.60;;
27632;SDS011;15046;50.930;13.334;2024-01-30T05:45:46;13.48;;;6.50;;
27632;SDS011;15046;50.930;13.334;2024-01-30T05:48:11;11.18;;;6.10;;
27632;SDS011;15046;50.930;13.334;2024-01-30T05:50:37;11.65;;;6.95;;
27632;SDS011;15046;50.930;13.334;2024-01-30T05:53:03;12.77;;;7.20;;
27632;SDS011;15046;50.930;13.334;2024-01-30T05:55:29;14.32;;;7.53;;
27632;SDS011;15046;50.930;13.334;2024-01-30T05:57:55;13.93;;;6.40;;
27632;SDS011;15046;50.930;13.334;2024-01-30T06:00:20;13.00;;;7.07;;
27632;SDS011;15046;50.930;13.334;2024-01-30T06:02:46;14.20;;;7.15;;
27632;SDS011;15046;50.930;13.334;2024-01-30T06:05:12;12.10;;;6.35;;
27632;SDS011;15046;50.930;13.334;2024-01-30T06:07:38;12.05;;;6.57;;
27632;SDS011;15046;50.930;13.334;2024-01-30T06:10:03;10.50;;;6.18;;
27632;SDS011;15046;50.930;13.334;2024-01-30T06:12:30;11.25;;;5.95;;
27632;SDS011;15046;50.930;13.334;2024-01-30T06:14:55;12.30;;;7.07;;
27632;SDS011;15046;50.930;13.334;2024-01-30T06:17:22;14.48;;;6.45;;
27632;SDS011;15046;50.930;13.334;2024-01-30T06:19:48;22.92;;;7.65;;
27632;SDS011;15046;50.930;13.334;2024-01-30T06:22:14;12.13;;;5.43;;
27632;SDS011;15046;50.930;13.334;2024-01-30T06:24:40;16.38;;;7.53;;
27632;SDS011;15046;50.930;13.334;2024-01-30T06:27:06;14.60;;;6.75;;
27632;SDS011;15046;50.930;13.334;2024-01-30T06:29:32;12.30;;;6.72;;
27632;SDS011;15046;50.930;13.334;2024-01-30T06:31:58;13.48;;;6.57;;
27632;SDS011;15046;50.930;13.334;2024-01-30T06:34:24;14.60;;;7.55;;
27632;SDS011;15046;50.930;13.334;2024-01-30T06:36:51;12.48;;;6.50;;
27632;SDS011;15046;50.930;13.334;2024-01-30T06:39:17;12.10;;;6.93;;
27632;SDS011;15046;50.930;13.334;2024-01-30T06:41:43;14.85;;;6.70;;
27632;SDS011;15046;50.930;13.334;2024-01-30T06:44:09;13.63;;;7.68;;
27632;SDS011;15046;50.930;13.334;2024-01-30T06:46:35;12.30;;;5.70;;
27632;SDS011;15046;50.930;13.334;2024-01-30T06:49:00;13.73;;;6.65;;
27632;SDS011;15046;50.930;13.334;2024-01-30T06:51:26;13.13;;;6.40;;
27632;SDS011;15046;50.930;13.334;2024-01-30T06:53:52;11.93;;;6.28;;
27632;SDS011;15046;50.930;13.334;2024-01-30T06:56:18;13.30;;;6.90;;
27632;SDS011;15046;50.930;13.334;2024-01-30T06:58:48;13.75;;;7.80;;
27632;SDS011;15046;50.930;13.334;2024-01-30T07:01:17;11.23;;;6.25;;
27632;SDS011;15046;50.930;13.334;2024-01-30T07:03:45;12.27;;;7.05;;
27632;SDS011;15046;50.930;13.334;2024-01-30T07:06:11;11.40;;;6.38;;
27632;SDS011;15046;50.930;13.334;2024-01-30T07:08:37;14.05;;;7.28;;
27632;SDS011;15046;50.930;13.334;2024-01-30T07:11:04;12.65;;;7.38;;
27632;SDS011;15046;50.930;13.334;2024-01-30T07:13:31;15.23;;;6.97;;
27632;SDS011;15046;50.930;13.334;2024-01-30T07:15:57;13.77;;;7.78;;
27632;SDS011;15046;50.930;13.334;2024-01-30T07:18:23;17.27;;;7.35;;
27632;SDS011;15046;50.930;13.334;2024-01-30T07:20:49;15.82;;;7.85;;
27632;SDS011;15046;50.930;13.334;2024-01-30T07:23:15;11.93;;;6.78;;
27632;SDS011;15046;50.930;13.334;2024-01-30T07:25:45;16.60;;;7.78;;
27632;SDS011;15046;50.930;13.334;2024-01-30T07:28:14;17.30;;;8.40;;
27632;SDS011;15046;50.930;13.334;2024-01-30T07:30:42;14.40;;;7.57;;
27632;SDS011;15046;50.930;13.334;2024-01-30T07:33:08;11.50;;;7.15;;
27632;SDS011;15046;50.930;13.334;2024-01-30T07:35:34;14.55;;;7.45;;
27632;SDS011;15046;50.930;13.334;2024-01-30T07:38:00;14.45;;;7.55;;
27632;SDS011;15046;50.930;13.334;2024-01-30T07:40:26;15.98;;;8.18;;
27632;SDS011;15046;50.930;13.334;2024-01-30T07:42:53;16.00;;;8.27;;
27632;SDS011;15046;50.930;13.334;2024-01-30T07:45:19;17.25;;;7.72;;
27632;SDS011;15046;50.930;13.334;2024-01-30T07:47:49;15.98;;;8.43;;
27632;SDS011;15046;50.930;13.334;2024-01-30T07:50:15;14.55;;;8.57;;
27632;SDS011;15046;50.930;13.334;2024-01-30T07:52:42;16.52;;;9.10;;
27632;SDS011;15046;50.930;13.334;2024-01-30T07:55:08;14.60;;;8.20;;
27632;SDS011;15046;50.930;13.334;2024-01-30T07:57:34;16.52;;;9.27;;
27632;SDS011;15046;50.930;13.334;2024-01-30T08:00:00;17.27;;;8.93;;
27632;SDS011;15046;50.930;13.334;2024-01-30T08:02:30;18.40;;;9.25;;
27632;SDS011;15046;50.930;13.334;2024-01-30T08:04:56;15.63;;;7.95;;
27632;SDS011;15046;50.930;13.334;2024-01-30T08:07:22;16.70;;;8.13;;
27632;SDS011;15046;50.930;13.334;2024-01-30T08:09:48;20.33;;;8.65;;
27632;SDS011;15046;50.930;13.334;2024-01-30T08:12:14;14.98;;;7.88;;
27632;SDS011;15046;50.930;13.334;2024-01-30T08:14:40;14.98;;;7.93;;
27632;SDS011;15046;50.930;13.334;2024-01-30T08:17:06;16.85;;;8.65;;
27632;SDS011;15046;50.930;13.334;2024-01-30T08:19:32;13.13;;;7.25;;
27632;SDS011;15046;50.930;13.334;2024-01-30T08:21:59;15.60;;;8.38;;
27632;SDS011;15046;50.930;13.334;2024-01-30T08:24:24;18.15;;;8.35;;
27632;SDS011;15046;50.930;13.334;2024-01-30T08:26:50;14.43;;;8.15;;
27632;SDS011;15046;50.930;13.334;2024-01-30T08:31:51;20.02;;;9.57;;
27632;SDS011;15046;50.930;13.334;2024-01-30T08:34:17;14.57;;;6.97;;
27632;SDS011;15046;50.930;13.334;2024-01-30T08:36:43;11.95;;;6.50;;
27632;SDS011;15046;50.930;13.334;2024-01-30T08:39:10;13.30;;;7.00;;
27632;SDS011;15046;50.930;13.334;2024-01-30T08:41:35;14.23;;;6.93;;
27632;SDS011;15046;50.930;13.334;2024-01-30T08:44:01;11.43;;;6.03;;
27632;SDS011;15046;50.930;13.334;2024-01-30T08:46:28;12.82;;;7.13;;
27632;SDS011;15046;50.930;13.334;2024-01-30T08:48:53;12.85;;;7.07;;
27632;SDS011;15046;50.930;13.334;2024-01-30T08:51:19;14.05;;;7.82;;
27632;SDS011;15046;50.930;13.334;2024-01-30T08:53:45;17.45;;;7.25;;
27632;SDS011;15046;50.930;13.334;2024-01-30T08:56:11;13.50;;;7.13;;
27632;SDS011;15046;50.930;13.334;2024-01-30T08:58:37;12.88;;;7.10;;
27632;SDS011;15046;50.930;13.334;2024-01-30T09:01:02;11.82;;;7.05;;
27632;SDS011;15046;50.930;13.334;2024-01-30T09:03:30;16.10;;;7.72;;
27632;SDS011;15046;50.930;13.334;2024-01-30T09:05:56;12.23;;;6.95;;
27632;SDS011;15046;50.930;13.334;2024-01-30T09:08:22;14.57;;;7.20;;
27632;SDS011;15046;50.930;13.334;2024-01-30T09:10:47;15.63;;;8.18;;
27632;SDS011;15046;50.930;13.334;2024-01-30T09:13:14;12.07;;;6.93;;
27632;SDS011;15046;50.930;13.334;2024-01-30T09:15:41;15.82;;;7.78;;
27632;SDS011;15046;50.930;13.334;2024-01-30T09:18:07;14.02;;;7.15;;
27632;SDS011;15046;50.930;13.334;2024-01-30T09:20:33;13.30;;;6.50;;
27632;SDS011;15046;50.930;13.334;2024-01-30T09:22:58;13.02;;;6.80;;
27632;SDS011;15046;50.930;13.334;2024-01-30T09:25:24;10.57;;;6.20;;
27632;SDS011;15046;50.930;13.334;2024-01-30T09:27:50;12.98;;;6.30;;
27632;SDS011;15046;50.930;13.334;2024-01-30T09:30:16;10.02;;;6.45;;
27632;SDS011;15046;50.930;13.334;2024-01-30T09:32:42;11.52;;;5.72;;
27632;SDS011;15046;50.930;13.334;2024-01-30T09:35:08;9.70;;;5.70;;
27632;SDS011;15046;50.930;13.334;2024-01-30T09:37:34;14.55;;;6.97;;
27632;SDS011;15046;50.930;13.334;2024-01-30T09:40:00;11.05;;;5.65;;
27632;SDS011;15046;50.930;13.334;2024-01-30T09:44:53;12.68;;;5.60;;
27632;SDS011;15046;50.930;13.334;2024-01-30T09:47:20;14.18;;;6.68;;
27632;SDS011;15046;50.930;13.334;2024-01-30T09:49:46;10.02;;;5.55;;
27632;SDS011;15046;50.930;13.334;2024-01-30T09:52:12;9.40;;;5.75;;
27632;SDS011;15046;50.930;13.334;2024-01-30T09:54:40;11.95;;;6.63;;
27632;SDS011;15046;50.930;13.334;2024-01-30T09:57:07;12.93;;;7.43;;
27632;SDS011;15046;50.930;13.334;2024-01-30T09:59:33;14.20;;;6.63;;
27632;SDS011;15046;50.930;13.334;2024-01-30T10:02:00;12.32;;;6.78;;
27632;SDS011;15046;50.930;13.334;2024-01-30T10:04:26;11.82;;;7.20;;
27632;SDS011;15046;50.930;13.334;2024-01-30T10:06:51;9.98;;;6.68;;
27632;SDS011;15046;50.930;13.334;2024-01-30T10:09:17;12.48;;;7.28;;
27632;SDS011;15046;50.930;13.334;2024-01-30T10:11:43;12.38;;;6.22;;
27632;SDS011;15046;50.930;13.334;2024-01-30T10:14:09;11.55;;;6.40;;
27632;SDS011;15046;50.930;13.334;2024-01-30T10:16:35;12.13;;;6.88;;
27632;SDS011;15046;50.930;13.334;2024-01-30T10:19:00;12.68;;;7.43;;
27632;SDS011;15046;50.930;13.334;2024-01-30T10:21:26;11.45;;;6.30;;
27632;SDS011;15046;50.930;13.334;2024-01-30T10:23:52;11.60;;;6.95;;
27632;SDS011;15046;50.930;13.334;2024-01-30T10:26:18;13.75;;;6.40;;
27632;SDS011;15046;50.930;13.334;2024-01-30T10:28:44;11.57;;;6.63;;
27632;SDS011;15046;50.930;13.334;2024-01-30T10:31:10;12.18;;;6.57;;
27632;SDS011;15046;50.930;13.334;2024-01-30T10:33:36;11.52;;;6.72;;
27632;SDS011;15046;50.930;13.334;2024-01-30T10:36:05;9.32;;;5.72;;
27632;SDS011;15046;50.930;13.334;2024-01-30T10:38:31;9.45;;;5.82;;
27632;SDS011;15046;50.930;13.334;2024-01-30T10:40:58;10.73;;;5.68;;
27632;SDS011;15046;50.930;13.334;2024-01-30T10:43:29;12.60;;;6.30;;
27632;SDS011;15046;50.930;13.334;2024-01-30T10:46:06;8.30;;;5.15;;
27632;SDS011;15046;50.930;13.334;2024-01-30T10:51:12;10.45;;;5.35;;
27632;SDS011;15046;50.930;13.334;2024-01-30T10:53:39;10.13;;;5.82;;
27632;SDS011;15046;50.930;13.334;2024-01-30T10:56:06;14.13;;;7.72;;
27632;SDS011;15046;50.930;13.334;2024-01-30T10:58:34;11.40;;;6.70;;
27632;SDS011;15046;50.930;13.334;2024-01-30T11:01:00;12.70;;;7.55;;
27632;SDS011;15046;50.930;13.334;2024-01-30T11:03:26;13.85;;;7.28;;
27632;SDS011;15046;50.930;13.334;2024-01-30T11:05:52;12.52;;;6.78;;
27632;SDS011;15046;50.930;13.334;2024-01-30T11:08:24;14.65;;;6.97;;
27632;SDS011;15046;50.930;13.334;2024-01-30T11:10:56;15.10;;;6.63;;
27632;SDS011;15046;50.930;13.334;2024-01-30T11:13:27;11.95;;;6.30;;
27632;SDS011;15046;50.930;13.334;2024-01-30T11:15:54;11.77;;;6.25;;
27632;SDS011;15046;50.930;13.334;2024-01-30T11:18:23;10.13;;;5.30;;
27632;SDS011;15046;50.930;13.334;2024-01-30T11:20:55;13.40;;;6.78;;
27632;SDS011;15046;50.930;13.334;2024-01-30T11:23:22;9.02;;;5.00;;
27632;SDS011;15046;50.930;13.334;2024-01-30T11:25:48;15.00;;;5.30;;
27632;SDS011;15046;50.930;13.334;2024-01-30T11:28:14;8.75;;;4.93;;
27632;SDS011;15046;50.930;13.334;2024-01-30T11:30:41;9.45;;;4.65;;
27632;SDS011;15046;50.930;13.334;2024-01-30T11:33:11;8.13;;;4.50;;
27632;SDS011;15046;50.930;13.334;2024-01-30T11:35:39;7.95;;;4.40;;
27632;SDS011;15046;50.930;13.334;2024-01-30T11:38:06;7.70;;;4.35;;
27632;SDS011;15046;50.930;13.334;2024-01-30T11:40:33;9.32;;;4.72;;
27632;SDS011;15046;50.930;13.334;2024-01-30T11:43:00;8.63;;;5.00;;
27632;SDS011;15046;50.930;13.334;2024-01-30T11:45:28;10.38;;;5.45;;
27632;SDS011;15046;50.930;13.334;2024-01-30T11:47:54;9.70;;;5.35;;
27632;SDS011;15046;50.930;13.334;2024-01-30T11:50:20;8.52;;;4.65;;
27632;SDS011;15046;50.930;13.334;2024-01-30T11:52:46;9.05;;;4.70;;
27632;SDS011;15046;50.930;13.334;2024-01-30T11:55:13;8.73;;;4.35;;
27632;SDS011;15046;50.930;13.334;2024-01-30T11:57:40;9.02;;;5.03;;
27632;SDS011;15046;50.930;13.334;2024-01-30T12:00:06;6.50;;;4.20;;
27632;SDS011;15046;50.930;13.334;2024-01-30T12:02:39;7.93;;;4.38;;
27632;SDS011;15046;50.930;13.334;2024-01-30T12:05:05;13.05;;;5.18;;
27632;SDS011;15046;50.930;13.334;2024-01-30T12:07:32;11.48;;;5.50;;
27632;SDS011;15046;50.930;13.334;2024-01-30T12:09:58;8.15;;;4.57;;
27632;SDS011;15046;50.930;13.334;2024-01-30T12:12:27;8.73;;;4.57;;
27632;SDS011;15046;50.930;13.334;2024-01-30T12:14:55;11.77;;;5.53;;
27632;SDS011;15046;50.930;13.334;2024-01-30T12:17:31;9.77;;;5.63;;
27632;SDS011;15046;50.930;13.334;2024-01-30T12:20:08;9.65;;;4.70;;
27632;SDS011;15046;50.930;13.334;2024-01-30T12:22:37;8.23;;;4.85;;
27632;SDS011;15046;50.930;13.334;2024-01-30T12:25:05;7.22;;;4.88;;
27632;SDS011;15046;50.930;13.334;2024-01-30T12:27:44;9.77;;;4.95;;
27632;SDS011;15046;50.930;13.334;2024-01-30T12:30:14;10.50;;;5.35;;
27632;SDS011;15046;50.930;13.334;2024-01-30T12:32:44;8.65;;;5.22;;
27632;SDS011;15046;50.930;13.334;2024-01-30T12:35:11;8.40;;;4.88;;
27632;SDS011;15046;50.930;13.334;2024-01-30T12:37:38;11.15;;;5.95;;
27632;SDS011;15046;50.930;13.334;2024-01-30T12:40:05;8.85;;;4.70;;
27632;SDS011;15046;50.930;13.334;2024-01-30T12:42:32;9.13;;;5.10;;
27632;SDS011;15046;50.930;13.334;2024-01-30T12:44:58;10.90;;;5.60;;
27632;SDS011;15046;50.930;13.334;2024-01-30T12:47:24;10.30;;;5.15;;
27632;SDS011;15046;50.930;13.334;2024-01-30T12:49:50;9.65;;;4.80;;
27632;SDS011;15046;50.930;13.334;2024-01-30T12:52:19;8.00;;;4.13;;
27632;SDS011;15046;50.930;13.334;2024-01-30T12:54:46;10.23;;;4.80;;
27632;SDS011;15046;50.930;13.334;2024-01-30T12:57:12;7.10;;;4.15;;
27632;SDS011;15046;50.930;13.334;2024-01-30T12:59:38;8.20;;;4.50;;
27632;SDS011;15046;50.930;13.334;2024-01-30T13:02:04;6.75;;;3.70;;
27632;SDS011;15046;50.930;13.334;2024-01-30T13:04:31;8.40;;;3.88;;
27632;SDS011;15046;50.930;13.334;2024-01-30T13:06:58;7.85;;;4.10;;
27632;SDS011;15046;50.930;13.334;2024-01-30T13:09:25;8.02;;;3.67;;
27632;SDS011;15046;50.930;13.334;2024-01-30T13:11:51;7.00;;;3.70;;
27632;SDS011;15046;50.930;13.334;2024-01-30T13:14:17;8.68;;;3.97;;
27632;SDS011;15046;50.930;13.334;2024-01-30T13:16:43;6.88;;;3.75;;
27632;SDS011;15046;50.930;13.334;2024-01-30T13:19:09;7.40;;;3.67;;
27632;SDS011;15046;50.930;13.334;2024-01-30T13:21:35;7.35;;;3.92;;
27632;SDS011;15046;50.930;13.334;2024-01-30T13:24:01;7.22;;;3.47;;
27632;SDS011;15046;50.930;13.334;2024-01-30T13:26:27;9.55;;;4.22;;
27632;SDS011;15046;50.930;13.334;2024-01-30T13:28:53;7.15;;;3.90;;
27632;SDS011;15046;50.930;13.334;2024-01-30T13:31:19;6.93;;;3.63;;
27632;SDS011;15046;50.930;13.334;2024-01-30T13:33:45;7.03;;;3.58;;
27632;SDS011;15046;50.930;13.334;2024-01-30T13:36:11;5.88;;;3.33;;
27632;SDS011;15046;50.930;13.334;2024-01-30T13:38:37;6.45;;;3.70;;
27632;SDS011;15046;50.930;13.334;2024-01-30T13:41:04;6.78;;;3.53;;
27632;SDS011;15046;50.930;13.334;2024-01-30T13:43:30;6.50;;;3.47;;
27632;SDS011;15046;50.930;13.334;2024-01-30T13:45:55;7.88;;;3.95;;
27632;SDS011;15046;50.930;13.334;2024-01-30T13:48:21;8.82;;;4.00;;
27632;SDS011;15046;50.930;13.334;2024-01-30T13:50:47;7.47;;;3.97;;
27632;SDS011;15046;50.930;13.334;2024-01-30T13:53:13;7.90;;;3.92;;
27632;SDS011;15046;50.930;13.334;2024-01-30T13:55:39;8.15;;;4.57;;
27632;SDS011;15046;50.930;13.334;2024-01-30T13:58:05;7.13;;;3.88;;
27632;SDS011;15046;50.930;13.334;2024-01-30T14:00:31;7.78;;;4.20;;
27632;SDS011;15046;50.930;13.334;2024-01-30T14:02:58;6.57;;;3.90;;
27632;SDS011;15046;50.930;13.334;2024-01-30T14:05:25;7.15;;;4.10;;
27632;SDS011;15046;50.930;13.334;2024-01-30T14:07:53;6.50;;;3.72;;
27632;SDS011;15046;50.930;13.334;2024-01-30T14:10:19;7.05;;;4.03;;
27632;SDS011;15046;50.930;13.334;2024-01-30T14:12:45;8.32;;;4.10;;
27632;SDS011;15046;50.930;13.334;2024-01-30T14:15:13;8.30;;;3.90;;
27632;SDS011;15046;50.930;13.334;2024-01-30T14:17:46;6.90;;;3.17;;
27632;SDS011;15046;50.930;13.334;2024-01-30T14:20:13;9.23;;;3.92;;
27632;SDS011;15046;50.930;13.334;2024-01-30T14:22:42;7.07;;;4.47;;
27632;SDS011;15046;50.930;13.334;2024-01-30T14:25:08;7.43;;;3.83;;
27632;SDS011;15046;50.930;13.334;2024-01-30T14:27:34;9.10;;;4.30;;